createdAt,value
2019-04-28T00:01:25.338Z,97.00
2019-04-28T00:03:54.651Z,97.00
2019-04-28T00:06:23.997Z,97.00
2019-04-28T00:08:59.220Z,97.00
2019-04-28T00:11:28.608Z,97.00
2019-04-28T00:13:57.940Z,97.00
2019-04-28T00:16:27.327Z,97.00
2019-04-28T00:18:56.639Z,97.00
2019-04-28T00:21:37.688Z,97.00
2019-04-28T00:24:19.146Z,97.00
2019-04-28T00:26:59.283Z,97.00
2019-04-28T00:29:38.516Z,97.00
2019-04-28T00:32:01.172Z,97.00
2019-04-28T00:34:31.193Z,97.00
2019-04-28T00:37:22.739Z,97.00
2019-04-28T00:39:52.040Z,97.00
2019-04-28T00:42:22.760Z,97.00
2019-04-28T00:44:52.096Z,97.00
2019-04-28T00:47:21.459Z,97.00
2019-04-28T00:49:51.967Z,97.00
2019-04-28T00:52:22.312Z,97.00
2019-04-28T00:54:52.653Z,97.00
2019-04-28T00:57:22.410Z,97.00
2019-04-28T00:59:57.708Z,97.00
2019-04-28T01:02:31.304Z,97.00
2019-04-28T01:05:01.554Z,97.00
2019-04-28T01:07:32.977Z,97.00
2019-04-28T01:10:02.164Z,97.00
2019-04-28T01:12:31.541Z,97.00
2019-04-28T01:15:04.571Z,97.00
2019-04-28T01:17:40.225Z,97.00
2019-04-28T01:20:11.875Z,97.00
2019-04-28T01:22:41.203Z,97.00
2019-04-28T01:25:10.827Z,97.00
2019-04-28T01:27:52.526Z,97.00
2019-04-28T01:30:40.279Z,97.00
2019-04-28T01:33:32.615Z,97.00
2019-04-28T01:36:01.981Z,97.00
2019-04-28T01:38:31.267Z,97.00
2019-04-28T01:41:01.586Z,97.00
2019-04-28T01:43:31.245Z,97.00
2019-04-28T01:46:00.885Z,97.00
2019-04-28T01:48:31.546Z,97.00
2019-04-28T01:51:01.064Z,97.00
2019-04-28T01:53:30.937Z,97.00
2019-04-28T01:56:00.429Z,97.00
2019-04-28T01:58:29.844Z,97.00
2019-04-28T02:00:59.684Z,97.00
2019-04-28T02:03:30.744Z,97.00
2019-04-28T02:06:00.384Z,97.00
2019-04-28T02:08:30.326Z,97.00
2019-04-28T02:11:00.325Z,97.00
2019-04-28T02:13:29.964Z,97.00
2019-04-28T02:16:00.181Z,97.00
2019-04-28T02:18:30.032Z,97.00
2019-04-28T02:21:17.159Z,97.00
2019-04-28T02:23:46.477Z,97.00
2019-04-28T02:26:15.976Z,97.00
2019-04-28T02:28:45.377Z,97.00
2019-04-28T02:31:14.855Z,97.00
2019-04-28T02:33:44.239Z,97.00
2019-04-28T02:36:13.567Z,97.00
2019-04-28T02:38:42.891Z,97.00
2019-04-28T02:41:12.296Z,97.00
2019-04-28T02:43:41.764Z,97.00
2019-04-28T02:46:11.463Z,97.00
2019-04-28T02:48:40.912Z,97.00
2019-04-28T02:51:17.514Z,97.00
2019-04-28T02:53:51.213Z,97.00
2019-04-28T02:56:21.275Z,97.00
2019-04-28T02:58:51.155Z,97.00
2019-04-28T03:01:26.110Z,97.00
2019-04-28T03:03:51.699Z,97.00
2019-04-28T03:06:21.222Z,97.00
2019-04-28T03:08:51.688Z,97.00
2019-04-28T03:11:23.277Z,97.00
2019-04-28T03:13:52.630Z,97.00
2019-04-28T03:16:23.139Z,97.00
2019-04-28T03:18:52.594Z,97.00
2019-04-28T03:21:22.184Z,97.00
2019-04-28T03:23:51.889Z,97.00
2019-04-28T03:26:42.921Z,97.00
2019-04-28T03:29:31.191Z,97.00
2019-04-28T03:32:28.686Z,97.00
2019-04-28T03:34:44.607Z,97.00
2019-04-28T03:37:13.945Z,97.00
2019-04-28T03:39:43.344Z,97.00
2019-04-28T03:42:12.726Z,97.00
2019-04-28T03:44:41.977Z,97.00
2019-04-28T03:47:11.322Z,97.00
2019-04-28T03:49:43.209Z,97.00
2019-04-28T03:52:11.573Z,97.00
2019-04-28T03:54:41.199Z,97.00
2019-04-28T03:57:11.382Z,97.00
2019-04-28T03:59:43.493Z,97.00
2019-04-28T04:02:12.051Z,97.00
2019-04-28T04:04:41.585Z,97.00
2019-04-28T04:07:11.361Z,97.00
2019-04-28T04:10:00.980Z,97.00
2019-04-28T04:12:45.075Z,97.00
2019-04-28T04:15:43.775Z,97.00
2019-04-28T04:18:17.920Z,97.00
2019-04-28T04:20:47.325Z,97.00
2019-04-28T04:23:16.748Z,97.00
2019-04-28T04:25:46.089Z,97.00
2019-04-28T04:28:15.620Z,97.00
2019-04-28T04:30:44.863Z,97.00
2019-04-28T04:33:14.260Z,97.00
2019-04-28T04:35:43.866Z,97.00
2019-04-28T04:38:13.315Z,97.00
2019-04-28T04:40:42.633Z,97.00
2019-04-28T04:43:12.016Z,97.00
2019-04-28T04:45:44.633Z,97.00
2019-04-28T04:48:14.025Z,97.00
2019-04-28T04:50:43.376Z,97.00
2019-04-28T04:53:12.763Z,97.00
2019-04-28T04:55:42.229Z,97.00
2019-04-28T04:58:11.517Z,97.00
2019-04-28T05:00:51.386Z,97.00
2019-04-28T05:03:24.793Z,97.00
2019-04-28T05:05:54.101Z,97.00
2019-04-28T05:08:23.436Z,97.00
2019-04-28T05:10:53.068Z,97.00
2019-04-28T05:13:22.302Z,97.00
2019-04-28T05:15:52.643Z,97.00
2019-04-28T05:18:22.066Z,97.00
2019-04-28T05:20:51.343Z,97.00
2019-04-28T05:23:29.744Z,97.00
2019-04-28T05:26:01.498Z,97.00
2019-04-28T05:28:32.469Z,97.00
2019-04-28T05:31:01.083Z,97.00
2019-04-28T05:33:33.817Z,97.00
2019-04-28T05:36:03.085Z,97.00
2019-04-28T05:38:32.426Z,97.00
2019-04-28T05:41:02.811Z,97.00
2019-04-28T05:43:32.344Z,97.00
2019-04-28T05:46:01.614Z,97.00
2019-04-28T05:48:52.944Z,97.00
2019-04-28T05:51:23.163Z,97.00
2019-04-28T05:54:02.587Z,97.00
2019-04-28T05:56:40.288Z,97.00
2019-04-28T05:59:23.120Z,97.00
2019-04-28T06:01:57.686Z,97.00
2019-04-28T06:04:30.280Z,97.00
2019-04-28T06:07:05.338Z,97.00
2019-04-28T06:09:45.059Z,97.00
2019-04-28T06:12:15.536Z,97.00
2019-04-28T06:14:44.827Z,97.00
2019-04-28T06:17:14.035Z,97.00
2019-04-28T06:19:43.379Z,97.00
2019-04-28T06:22:12.715Z,97.00
2019-04-28T06:24:41.961Z,97.00
2019-04-28T06:27:11.254Z,97.00
2019-04-28T06:29:40.553Z,97.00
2019-04-28T06:32:09.974Z,97.00
2019-04-28T06:34:39.219Z,97.00
2019-04-28T06:37:08.534Z,97.00
2019-04-28T06:39:37.847Z,97.00
2019-04-28T06:42:07.223Z,97.00
2019-04-28T06:44:36.539Z,97.00
2019-04-28T06:47:05.848Z,97.00
2019-04-28T06:49:35.120Z,97.00
2019-04-28T06:52:04.320Z,97.00
2019-04-28T06:54:33.616Z,97.00
2019-04-28T06:57:02.931Z,97.00
2019-04-28T06:59:32.220Z,97.00
2019-04-28T07:02:01.572Z,97.00
2019-04-28T07:04:30.795Z,97.00
2019-04-28T07:07:00.138Z,97.00
2019-04-28T07:09:29.546Z,97.00
2019-04-28T07:11:58.851Z,97.00
2019-04-28T07:14:28.175Z,97.00
2019-04-28T07:16:57.457Z,97.00
2019-04-28T07:19:26.811Z,97.00
2019-04-28T07:22:07.893Z,97.00
2019-04-28T07:24:37.136Z,97.00
2019-04-28T07:27:07.729Z,97.00
2019-04-28T07:29:36.960Z,97.00
2019-04-28T07:32:06.278Z,97.00
2019-04-28T07:34:37.457Z,97.00
2019-04-28T07:37:06.851Z,97.00
2019-04-28T07:39:36.282Z,97.00
2019-04-28T07:42:05.784Z,97.00
2019-04-28T07:44:35.009Z,97.00
2019-04-28T07:47:04.369Z,97.00
2019-04-28T07:49:33.909Z,97.00
2019-04-28T07:52:14.763Z,97.00
2019-04-28T07:54:44.144Z,97.00
2019-04-28T07:57:13.411Z,97.00
2019-04-28T07:59:42.815Z,97.00
2019-04-28T08:02:12.147Z,97.00
2019-04-28T08:04:41.396Z,97.00
2019-04-28T08:07:10.591Z,97.00
2019-04-28T08:09:39.844Z,97.00
2019-04-28T08:12:10.144Z,97.00
2019-04-28T08:14:39.660Z,97.00
2019-04-28T08:17:08.954Z,97.00
2019-04-28T08:19:38.326Z,97.00
2019-04-28T08:22:07.656Z,97.00
2019-04-28T08:24:36.944Z,97.00
2019-04-28T08:27:06.345Z,97.00
2019-04-28T08:29:35.629Z,97.00
2019-04-28T08:32:22.557Z,97.00
2019-04-28T08:34:52.015Z,97.00
2019-04-28T08:37:21.285Z,97.00
2019-04-28T08:39:50.668Z,97.00
2019-04-28T08:42:20.143Z,97.00
2019-04-28T08:44:49.565Z,97.00
2019-04-28T08:47:18.877Z,97.00
2019-04-28T08:49:48.148Z,97.00
2019-04-28T08:52:17.488Z,97.00
2019-04-28T08:54:46.908Z,97.00
2019-04-28T08:57:16.157Z,97.00
2019-04-28T08:59:45.557Z,97.00
2019-04-28T09:02:14.901Z,97.00
2019-04-28T09:04:44.098Z,97.00
2019-04-28T09:07:13.610Z,97.00
2019-04-28T09:09:42.869Z,97.00
2019-04-28T09:12:12.225Z,97.00
2019-04-28T09:14:41.437Z,97.00
2019-04-28T09:17:10.808Z,97.00
2019-04-28T09:19:42.350Z,97.00
2019-04-28T09:22:11.109Z,97.00
2019-04-28T09:24:40.301Z,97.00
2019-04-28T09:27:09.682Z,97.00
2019-04-28T09:29:38.942Z,97.00
2019-04-28T09:32:08.209Z,97.00
2019-04-28T09:34:37.561Z,97.00
2019-04-28T09:37:06.823Z,97.00
2019-04-28T09:39:47.077Z,97.00
2019-04-28T09:42:41.440Z,97.00
2019-04-28T09:45:16.774Z,97.00
2019-04-28T09:47:46.130Z,97.00
2019-04-28T09:50:15.457Z,97.00
2019-04-28T09:52:44.789Z,97.00
2019-04-28T09:55:14.275Z,97.00
2019-04-28T09:57:43.638Z,97.00
2019-04-28T10:00:13.504Z,97.00
2019-04-28T10:02:42.849Z,97.00
2019-04-28T10:05:12.410Z,97.00
2019-04-28T10:07:41.785Z,97.00
2019-04-28T10:10:11.688Z,97.00
2019-04-28T10:12:41.069Z,97.00
2019-04-28T10:15:10.606Z,97.00
2019-04-28T10:17:40.076Z,97.00
2019-04-28T10:20:09.862Z,97.00
2019-04-28T10:22:39.135Z,97.00
2019-04-28T10:25:08.783Z,97.00
2019-04-28T10:27:38.134Z,97.00
2019-04-28T10:30:08.977Z,97.00
2019-04-28T10:32:38.320Z,97.00
2019-04-28T10:35:08.490Z,97.00
2019-04-28T10:37:37.946Z,97.00
2019-04-28T10:40:13.785Z,97.00
2019-04-28T10:42:43.276Z,97.00
2019-04-28T10:45:16.061Z,97.00
2019-04-28T10:47:45.514Z,97.00
2019-04-28T10:50:14.797Z,97.00
2019-04-28T10:52:44.089Z,97.00
2019-04-28T10:55:13.505Z,97.00
2019-04-28T10:57:42.965Z,97.00
2019-04-28T11:00:13.038Z,97.00
2019-04-28T11:02:43.602Z,97.00
2019-04-28T11:05:20.641Z,97.00
2019-04-28T11:07:50.072Z,97.00
2019-04-28T11:10:20.495Z,97.00
2019-04-28T11:12:49.781Z,97.00
2019-04-28T11:15:23.738Z,97.00
2019-04-28T11:17:53.289Z,97.00
2019-04-28T11:20:25.151Z,97.00
2019-04-28T11:22:53.736Z,97.00
2019-04-28T11:25:23.081Z,97.00
2019-04-28T11:27:52.278Z,97.00
2019-04-28T11:30:22.765Z,97.00
2019-04-28T11:33:17.128Z,97.00
2019-04-28T11:35:46.616Z,97.00
2019-04-28T11:38:17.009Z,97.00
2019-04-28T11:40:46.249Z,97.00
2019-04-28T11:43:15.490Z,97.00
2019-04-28T11:45:44.885Z,97.00
2019-04-28T11:48:17.033Z,97.00
2019-04-28T11:50:46.251Z,97.00
2019-04-28T11:53:15.594Z,97.00
2019-04-28T11:55:45.025Z,97.00
2019-04-28T11:58:14.220Z,97.00
2019-04-28T12:00:43.663Z,97.00
2019-04-28T12:03:15.932Z,97.00
2019-04-28T12:05:47.176Z,97.00
2019-04-28T12:08:16.734Z,97.00
2019-04-28T12:11:17.356Z,97.00
2019-04-28T12:14:08.477Z,97.00
2019-04-28T12:17:14.968Z,97.00
2019-04-28T12:19:47.780Z,97.00
2019-04-28T12:22:17.050Z,97.00
2019-04-28T12:24:46.346Z,97.00
2019-04-28T12:27:15.940Z,97.00
2019-04-28T12:29:45.314Z,97.00
2019-04-28T12:32:14.706Z,97.00
2019-04-28T12:34:44.095Z,97.00
2019-04-28T12:37:13.433Z,97.00
2019-04-28T12:39:42.769Z,97.00
2019-04-28T12:42:12.165Z,97.00
2019-04-28T12:44:41.662Z,97.00
2019-04-28T12:47:11.117Z,97.00
2019-04-28T12:50:05.788Z,97.00
2019-04-28T12:52:35.158Z,97.00
2019-04-28T12:55:04.733Z,97.00
2019-04-28T12:57:34.003Z,97.00
2019-04-28T13:00:16.455Z,97.00
2019-04-28T13:02:54.194Z,97.00
2019-04-28T13:05:24.205Z,97.00
2019-04-28T13:07:53.490Z,97.00
2019-04-28T13:10:22.883Z,97.00
2019-04-28T13:12:52.229Z,97.00
2019-04-28T13:15:21.613Z,97.00
2019-04-28T13:17:50.934Z,97.00
2019-04-28T13:20:22.032Z,97.00
2019-04-28T13:22:51.305Z,97.00
2019-04-28T13:25:20.787Z,97.00
2019-04-28T13:27:50.148Z,97.00
2019-04-28T13:30:22.645Z,97.00
2019-04-28T13:32:51.969Z,97.00
2019-04-28T13:35:23.813Z,97.00
2019-04-28T13:37:53.129Z,97.00
2019-04-28T13:40:27.238Z,97.00
2019-04-28T13:42:56.522Z,97.00
2019-04-28T13:45:26.309Z,97.00
2019-04-28T13:47:55.601Z,97.00
2019-04-28T13:50:36.870Z,97.00
2019-04-28T13:53:07.105Z,97.00
2019-04-28T13:56:04.792Z,97.00
2019-04-28T13:59:00.249Z,97.00
2019-04-28T14:01:48.546Z,97.00
2019-04-28T14:04:33.319Z,97.00
2019-04-28T14:07:04.414Z,97.00
2019-04-28T14:09:33.895Z,97.00
2019-04-28T14:12:03.216Z,97.00
2019-04-28T14:14:32.820Z,97.00
2019-04-28T14:17:02.183Z,97.00
2019-04-28T14:19:31.776Z,97.00
2019-04-28T14:22:01.076Z,97.00
2019-04-28T14:24:31.354Z,97.00
2019-04-28T14:27:00.728Z,97.00
2019-04-28T14:29:30.126Z,97.00
2019-04-28T14:31:59.522Z,97.00
2019-04-28T14:34:28.864Z,97.00
2019-04-28T14:36:58.197Z,97.00
2019-04-28T14:39:27.483Z,97.00
2019-04-28T14:41:56.845Z,97.00
2019-04-28T14:44:26.260Z,97.00
2019-04-28T14:46:55.730Z,97.00
2019-04-28T14:49:25.249Z,97.00
2019-04-28T14:51:54.654Z,97.00
2019-04-28T14:54:24.266Z,94.50
2019-04-28T14:56:53.964Z,94.70
2019-04-28T14:59:23.274Z,95.40
2019-04-28T15:02:12.316Z,94.10
2019-04-28T15:04:59.266Z,93.80
2019-04-28T15:08:05.979Z,95.10
2019-04-28T15:10:57.197Z,95.40
2019-04-28T15:13:29.528Z,94.50
2019-04-28T15:15:58.974Z,93.80
2019-04-28T15:18:31.137Z,92.90
2019-04-28T15:21:00.500Z,93.60
2019-04-28T15:23:29.882Z,91.10
2019-04-28T15:25:59.061Z,91.70
2019-04-28T15:28:28.444Z,92.00
2019-04-28T15:30:57.692Z,92.20
2019-04-28T15:33:29.435Z,94.50
2019-04-28T15:35:58.791Z,91.90
2019-04-28T15:38:29.503Z,92.30
2019-04-28T15:40:58.871Z,92.50
2019-04-28T15:43:28.422Z,90.50
2019-04-28T15:45:57.613Z,89.10
2019-04-28T15:48:28.108Z,89.60
2019-04-28T15:50:57.443Z,87.70
2019-04-28T15:53:27.179Z,88.10
2019-04-28T15:56:10.964Z,88.00
2019-04-28T15:58:40.160Z,86.00
2019-04-28T16:01:09.684Z,84.10
2019-04-28T16:03:39.096Z,85.80
2019-04-28T16:06:08.397Z,84.80
2019-04-28T16:08:37.781Z,86.00
2019-04-28T16:11:07.190Z,87.00
2019-04-28T16:13:36.435Z,87.80
2019-04-28T16:16:05.760Z,87.10
2019-04-28T16:18:35.084Z,88.80
2019-04-28T16:21:07.107Z,88.20
2019-04-28T16:23:36.534Z,88.60
2019-04-28T16:26:05.851Z,90.30
2019-04-28T16:28:35.140Z,90.50
2019-04-28T16:31:04.591Z,91.60
2019-04-28T16:33:34.888Z,93.60
2019-04-28T16:36:04.337Z,94.90
2019-04-28T16:38:33.668Z,96.50
2019-04-28T16:41:33.166Z,95.60
2019-04-28T16:44:23.175Z,95.50
2019-04-28T16:46:52.617Z,95.10
2019-04-28T16:49:21.886Z,93.90
2019-04-28T16:51:51.339Z,95.00
2019-04-28T16:54:20.638Z,95.80
2019-04-28T16:57:00.901Z,95.20
2019-04-28T16:59:46.810Z,96.40
2019-04-28T17:02:36.426Z,97.00
2019-04-28T17:05:46.263Z,96.80
2019-04-28T17:09:11.873Z,97.00
2019-04-28T17:11:47.728Z,97.00
2019-04-28T17:14:38.043Z,97.00
2019-04-28T17:17:10.157Z,97.00
2019-04-28T17:20:26.105Z,97.00
2019-04-28T17:22:44.723Z,97.00
2019-04-28T17:25:34.861Z,97.00
2019-04-28T17:28:12.240Z,97.00
2019-04-28T17:30:51.547Z,97.00
2019-04-28T17:33:40.863Z,97.00
2019-04-28T17:36:23.604Z,97.00
2019-04-28T17:39:17.510Z,97.00
2019-04-28T17:42:15.556Z,97.00
2019-04-28T17:45:08.071Z,97.00
2019-04-28T17:47:37.437Z,97.00
2019-04-28T17:50:07.168Z,97.00
2019-04-28T17:52:36.494Z,97.00
2019-04-28T17:55:05.731Z,97.00
2019-04-28T17:57:35.475Z,97.00
2019-04-28T18:00:18.757Z,97.00
2019-04-28T18:03:01.158Z,97.00
2019-04-28T18:05:34.811Z,97.00
2019-04-28T18:08:05.080Z,97.00
2019-04-28T18:10:36.933Z,97.00
2019-04-28T18:13:06.560Z,97.00
2019-04-28T18:15:55.247Z,97.00
2019-04-28T18:18:46.091Z,97.00
2019-04-28T18:21:15.453Z,97.00
2019-04-28T18:23:44.857Z,97.00
2019-04-28T18:26:18.333Z,97.00
2019-04-28T18:28:47.662Z,97.00
2019-04-28T18:31:25.909Z,97.00
2019-04-28T18:34:29.618Z,97.00
2019-04-28T18:37:16.432Z,97.00
2019-04-28T18:40:04.397Z,97.00
2019-04-28T18:42:40.487Z,97.00
2019-04-28T18:45:11.200Z,97.00
2019-04-28T18:47:40.613Z,97.00
2019-04-28T18:50:10.026Z,97.00
2019-04-28T18:52:39.301Z,97.00
2019-04-28T18:55:08.601Z,97.00
2019-04-28T18:57:38.194Z,97.00
2019-04-28T19:00:07.751Z,97.00
2019-04-28T19:02:46.949Z,97.00
2019-04-28T19:05:16.384Z,97.00
2019-04-28T19:08:20.698Z,97.00
2019-04-28T19:11:07.678Z,97.00
2019-04-28T19:13:43.588Z,97.00
2019-04-28T19:16:46.607Z,97.00
2019-04-28T19:19:16.679Z,97.00
2019-04-28T19:21:57.865Z,97.00
2019-04-28T19:24:28.041Z,97.00
2019-04-28T19:26:57.393Z,97.00
2019-04-28T19:29:26.731Z,97.00
2019-04-28T19:31:55.990Z,97.00
2019-04-28T19:34:25.320Z,97.00
2019-04-28T19:36:54.664Z,97.00
2019-04-28T19:39:24.131Z,97.00
2019-04-28T19:41:53.549Z,97.00
2019-04-28T19:44:22.819Z,97.00
2019-04-28T19:46:54.279Z,97.00
2019-04-28T19:49:23.572Z,97.00
2019-04-28T19:51:52.775Z,97.00
2019-04-28T19:54:25.280Z,97.00
2019-04-28T19:57:19.636Z,97.00
2019-04-28T20:00:06.527Z,97.00
2019-04-28T20:02:36.022Z,97.00
2019-04-28T20:05:05.512Z,97.00
2019-04-28T20:07:34.850Z,97.00
2019-04-28T20:10:04.719Z,97.00
2019-04-28T20:12:34.063Z,97.00
2019-04-28T20:15:03.569Z,97.00
2019-04-28T20:17:32.843Z,97.00
2019-04-28T20:20:02.209Z,97.00
2019-04-28T20:22:31.475Z,97.00
2019-04-28T20:25:00.660Z,97.00
2019-04-28T20:27:30.007Z,97.00
2019-04-28T20:29:59.275Z,97.00
2019-04-28T20:32:30.135Z,97.00
2019-04-28T20:34:59.463Z,97.00
2019-04-28T20:37:39.169Z,97.00
2019-04-28T20:40:13.119Z,97.00
2019-04-28T20:42:53.923Z,97.00
2019-04-28T20:45:23.182Z,97.00
2019-04-28T20:47:52.720Z,97.00
2019-04-28T20:50:22.064Z,97.00
2019-04-28T20:52:51.571Z,97.00
2019-04-28T20:55:20.899Z,97.00
2019-04-28T20:57:50.188Z,97.00
2019-04-28T21:00:19.815Z,97.00
2019-04-28T21:02:49.234Z,97.00
2019-04-28T21:05:18.623Z,97.00
2019-04-28T21:07:48.027Z,97.00
2019-04-28T21:10:17.298Z,97.00
2019-04-28T21:12:47.636Z,97.00
2019-04-28T21:15:17.005Z,97.00
2019-04-28T21:17:46.519Z,97.00
2019-04-28T21:20:15.901Z,97.00
2019-04-28T21:22:45.284Z,97.00
2019-04-28T21:25:14.763Z,97.00
2019-04-28T21:27:44.097Z,97.00
2019-04-28T21:30:13.671Z,97.00
2019-04-28T21:32:42.936Z,97.00
2019-04-28T21:35:12.459Z,97.00
2019-04-28T21:37:41.643Z,97.00
2019-04-28T21:40:12.641Z,97.00
2019-04-28T21:43:03.106Z,97.00
2019-04-28T21:46:09.768Z,97.00
2019-04-28T21:48:41.768Z,97.00
2019-04-28T21:51:12.051Z,97.00
2019-04-28T21:53:41.607Z,97.00
2019-04-28T21:56:10.907Z,97.00
2019-04-28T21:58:40.083Z,97.00
2019-04-28T22:01:12.225Z,97.00
2019-04-28T22:03:41.643Z,97.00
2019-04-28T22:06:10.904Z,97.00
2019-04-28T22:08:40.173Z,97.00
2019-04-28T22:11:09.510Z,97.00
2019-04-28T22:13:38.847Z,97.00
2019-04-28T22:16:08.433Z,97.00
2019-04-28T22:18:37.760Z,97.00
2019-04-28T22:21:07.055Z,97.00
2019-04-28T22:24:10.881Z,97.00
2019-04-28T22:26:43.718Z,97.00
2019-04-28T22:29:13.247Z,97.00
2019-04-28T22:31:43.017Z,97.00
2019-04-28T22:34:14.092Z,97.00
2019-04-28T22:36:44.327Z,97.00
2019-04-28T22:39:13.863Z,97.00
2019-04-28T22:41:43.131Z,97.00
2019-04-28T22:44:12.411Z,97.00
2019-04-28T22:46:41.912Z,97.00
2019-04-28T22:49:11.156Z,97.00
2019-04-28T22:51:40.468Z,97.00
2019-04-28T22:54:15.267Z,97.00
2019-04-28T22:56:49.004Z,97.00
2019-04-28T22:59:22.423Z,97.00
2019-04-28T23:01:58.174Z,97.00
2019-04-28T23:04:33.552Z,97.00
2019-04-28T23:07:08.703Z,97.00
2019-04-28T23:09:38.035Z,97.00
2019-04-28T23:12:09.540Z,97.00
2019-04-28T23:14:38.898Z,97.00
2019-04-28T23:17:10.147Z,97.00
2019-04-28T23:19:41.816Z,97.00
2019-04-28T23:22:46.208Z,97.00
2019-04-28T23:25:07.322Z,97.00
2019-04-28T23:27:36.687Z,97.00
2019-04-28T23:30:08.049Z,97.00
2019-04-28T23:32:37.496Z,97.00
2019-04-28T23:35:11.368Z,97.00
2019-04-28T23:37:40.619Z,97.00
2019-04-28T23:40:13.147Z,97.00
2019-04-28T23:42:47.929Z,97.00
2019-04-28T23:45:17.103Z,97.00
2019-04-28T23:47:46.484Z,97.00
2019-04-28T23:50:17.956Z,97.00
2019-04-28T23:53:01.685Z,97.00
2019-04-28T23:55:31.031Z,97.00
2019-04-28T23:58:00.239Z,97.00
